Cedar Rapids (CID/KCID)

Map

Destinations

Information

Location
Cedar Rapids, IA
Local Time
03:14 / 3:14 am
GMT Time
08:14 / 8:14 am
Gates
A6
No FAA reported delays
METAR KCID 270752Z AUTO 00000KT 1/4SM FG VV001 12/12 A2986 RMK AO2 SLP111 T01170117 $
TAF KCID 270520Z 2706/2806 VRB02KT 1/2SM FG SCT002 TEMPO 2706/2710 1/4SM FG VV002 FM271400 12006KT 6SM BR SCT040 FM272100 12009KT P6SM VCTS BKN050CB FM280100 36012KT 6SM BR BKN030